sensor_id;sensor_type;location;lat;lon;timestamp;pressure;altitude;pressure_sealevel;temperature;humidity
41234;BME280;26968;42.686;23.352;2023-03-20T00:00:35;95579.06;;;7.30;56.27
41234;BME280;26968;42.686;23.352;2023-03-20T00:03:01;95539.13;;;7.05;56.50
41234;BME280;26968;42.686;23.352;2023-03-20T00:05:28;95406.09;;;6.18;56.72
41234;BME280;26968;42.686;23.352;2023-03-20T00:07:54;95558.41;;;7.05;57.21
41234;BME280;26968;42.686;23.352;2023-03-20T00:10:21;95545.06;;;6.95;57.02
41234;BME280;26968;42.686;23.352;2023-03-20T00:12:49;95495.88;;;6.67;57.24
41234;BME280;26968;42.686;23.352;2023-03-20T00:15:45;95571.75;;;6.98;57.49
41234;BME280;26968;42.686;23.352;2023-03-20T00:18:16;95570.56;;;6.89;57.60
41234;BME280;26968;42.686;23.352;2023-03-20T00:20:46;95495.25;;;6.43;57.92
41234;BME280;26968;42.686;23.352;2023-03-20T00:23:12;95527.50;;;6.67;57.89
41234;BME280;26968;42.686;23.352;2023-03-20T00:25:38;95460.34;;;6.19;57.92
41234;BME280;26968;42.686;23.352;2023-03-20T00:31:04;95558.75;;;6.92;58.15
41234;BME280;26968;42.686;23.352;2023-03-20T00:33:31;95556.50;;;6.84;58.27
41234;BME280;26968;42.686;23.352;2023-03-20T00:35:56;95540.22;;;6.70;58.12
41234;BME280;26968;42.686;23.352;2023-03-20T00:38:23;95558.09;;;6.85;58.11
41234;BME280;26968;42.686;23.352;2023-03-20T00:40:49;95513.22;;;6.63;57.95
41234;BME280;26968;42.686;23.352;2023-03-20T00:43:14;95530.72;;;6.69;58.05
41234;BME280;26968;42.686;23.352;2023-03-20T00:45:42;95458.13;;;6.28;58.04
41234;BME280;26968;42.686;23.352;2023-03-20T00:48:12;95556.34;;;6.74;58.42
41234;BME280;26968;42.686;23.352;2023-03-20T00:50:38;95556.25;;;6.69;58.67
41234;BME280;26968;42.686;23.352;2023-03-20T00:53:05;95558.09;;;6.68;58.78
41234;BME280;26968;42.686;23.352;2023-03-20T00:55:30;95476.88;;;6.15;58.76
41234;BME280;26968;42.686;23.352;2023-03-20T00:57:58;95551.47;;;6.66;58.76
41234;BME280;26968;42.686;23.352;2023-03-20T01:00:44;95498.44;;;6.29;59.00
41234;BME280;26968;42.686;23.352;2023-03-20T01:03:17;95480.88;;;6.17;59.12
41234;BME280;26968;42.686;23.352;2023-03-20T01:05:44;95541.66;;;6.61;59.03
41234;BME280;26968;42.686;23.352;2023-03-20T01:08:16;95495.16;;;6.22;59.08
41234;BME280;26968;42.686;23.352;2023-03-20T01:10:43;95543.16;;;6.40;59.91
41234;BME280;26968;42.686;23.352;2023-03-20T01:13:18;95539.34;;;6.48;59.59
41234;BME280;26968;42.686;23.352;2023-03-20T01:15:44;95426.13;;;5.74;59.58
41234;BME280;26968;42.686;23.352;2023-03-20T01:18:12;95532.69;;;6.45;59.54
41234;BME280;26968;42.686;23.352;2023-03-20T01:20:38;95518.13;;;6.26;60.39
41234;BME280;26968;42.686;23.352;2023-03-20T01:23:03;95446.91;;;5.88;59.69
41234;BME280;26968;42.686;23.352;2023-03-20T01:25:29;95504.00;;;6.15;60.51
41234;BME280;26968;42.686;23.352;2023-03-20T01:27:55;95521.03;;;6.25;59.92
41234;BME280;26968;42.686;23.352;2023-03-20T01:30:28;95530.22;;;6.39;59.97
41234;BME280;26968;42.686;23.352;2023-03-20T01:32:54;95515.84;;;6.30;59.76
41234;BME280;26968;42.686;23.352;2023-03-20T01:35:22;95532.94;;;6.44;60.11
41234;BME280;26968;42.686;23.352;2023-03-20T01:37:49;95429.41;;;5.81;59.90
41234;BME280;26968;42.686;23.352;2023-03-20T01:40:33;95538.13;;;6.39;59.69
41234;BME280;26968;42.686;23.352;2023-03-20T01:43:01;95539.72;;;6.40;59.61
41234;BME280;26968;42.686;23.352;2023-03-20T01:45:34;95477.31;;;5.95;59.52
41234;BME280;26968;42.686;23.352;2023-03-20T01:48:07;95482.34;;;5.97;60.13
41234;BME280;26968;42.686;23.352;2023-03-20T01:50:37;95483.88;;;5.93;60.01
41234;BME280;26968;42.686;23.352;2023-03-20T01:55:38;95489.81;;;5.88;60.20
41234;BME280;26968;42.686;23.352;2023-03-20T01:58:12;95494.19;;;5.82;60.05
41234;BME280;26968;42.686;23.352;2023-03-20T02:00:40;95549.19;;;5.96;61.39
41234;BME280;26968;42.686;23.352;2023-03-20T02:03:07;95413.47;;;5.15;60.60
41234;BME280;26968;42.686;23.352;2023-03-20T02:05:34;95538.53;;;6.02;61.02
41234;BME280;26968;42.686;23.352;2023-03-20T02:08:28;95540.91;;;6.04;61.04
41234;BME280;26968;42.686;23.352;2023-03-20T02:10:56;95343.41;;;4.80;61.12
41234;BME280;26968;42.686;23.352;2023-03-20T02:13:25;95435.22;;;5.38;60.76
41234;BME280;26968;42.686;23.352;2023-03-20T02:16:04;95500.38;;;5.76;60.93
41234;BME280;26968;42.686;23.352;2023-03-20T02:18:32;95446.53;;;5.39;61.00
41234;BME280;26968;42.686;23.352;2023-03-20T02:24:50;95537.31;;;5.93;60.92
41234;BME280;26968;42.686;23.352;2023-03-20T02:30:04;95538.78;;;6.01;60.89
41234;BME280;26968;42.686;23.352;2023-03-20T02:41:27;95458.44;;;5.41;61.14
41234;BME280;26968;42.686;23.352;2023-03-20T02:49:28;95528.97;;;5.85;61.35
41234;BME280;26968;42.686;23.352;2023-03-20T02:52:48;95523.69;;;5.85;61.93
41234;BME280;26968;42.686;23.352;2023-03-20T02:57:56;95390.31;;;4.88;62.05
41234;BME280;26968;42.686;23.352;2023-03-20T03:00:35;95519.28;;;5.73;61.56
41234;BME280;26968;42.686;23.352;2023-03-20T03:05:50;95510.91;;;5.48;62.90
41234;BME280;26968;42.686;23.352;2023-03-20T03:08:19;95448.00;;;5.07;62.40
41234;BME280;26968;42.686;23.352;2023-03-20T03:10:56;95465.09;;;5.21;62.26
41234;BME280;26968;42.686;23.352;2023-03-20T03:13:26;95451.06;;;5.15;62.50
41234;BME280;26968;42.686;23.352;2023-03-20T03:15:56;95525.38;;;5.62;62.51
41234;BME280;26968;42.686;23.352;2023-03-20T03:18:28;95528.47;;;5.59;62.21
41234;BME280;26968;42.686;23.352;2023-03-20T03:20:59;95526.31;;;5.56;62.35
41234;BME280;26968;42.686;23.352;2023-03-20T03:23:31;95497.41;;;5.44;62.73
41234;BME280;26968;42.686;23.352;2023-03-20T03:25:58;95524.00;;;5.60;62.53
41234;BME280;26968;42.686;23.352;2023-03-20T03:31:07;95462.25;;;5.22;62.47
41234;BME280;26968;42.686;23.352;2023-03-20T03:33:36;95478.03;;;5.22;62.24
41234;BME280;26968;42.686;23.352;2023-03-20T03:41:38;95527.00;;;5.63;62.17
41234;BME280;26968;42.686;23.352;2023-03-20T03:46:52;95526.56;;;5.55;62.88
41234;BME280;26968;42.686;23.352;2023-03-20T03:49:25;95496.31;;;5.29;63.23
41234;BME280;26968;42.686;23.352;2023-03-20T03:51:55;95524.28;;;5.47;62.41
41234;BME280;26968;42.686;23.352;2023-03-20T03:54:26;95479.53;;;5.18;62.59
41234;BME280;26968;42.686;23.352;2023-03-20T03:56:56;95477.75;;;4.95;62.80
41234;BME280;26968;42.686;23.352;2023-03-20T03:59:38;95347.28;;;4.14;63.31
41234;BME280;26968;42.686;23.352;2023-03-20T04:02:06;95353.00;;;4.11;63.16
41234;BME280;26968;42.686;23.352;2023-03-20T04:04:35;95496.50;;;4.87;63.98
41234;BME280;26968;42.686;23.352;2023-03-20T04:07:01;95518.97;;;5.07;63.94
41234;BME280;26968;42.686;23.352;2023-03-20T04:09:27;95459.69;;;4.29;65.61
41234;BME280;26968;42.686;23.352;2023-03-20T04:11:53;95519.09;;;4.77;65.40
41234;BME280;26968;42.686;23.352;2023-03-20T04:14:19;95513.28;;;4.75;65.11
41234;BME280;26968;42.686;23.352;2023-03-20T04:16:45;95510.06;;;4.84;65.12
41234;BME280;26968;42.686;23.352;2023-03-20T04:19:10;95420.44;;;4.22;64.98
41234;BME280;26968;42.686;23.352;2023-03-20T04:21:36;95436.88;;;4.41;65.20
41234;BME280;26968;42.686;23.352;2023-03-20T04:24:02;95438.34;;;4.37;65.18
41234;BME280;26968;42.686;23.352;2023-03-20T04:26:27;95435.50;;;4.27;65.28
41234;BME280;26968;42.686;23.352;2023-03-20T04:28:53;95389.94;;;3.98;65.35
41234;BME280;26968;42.686;23.352;2023-03-20T04:31:18;95505.97;;;4.77;65.19
41234;BME280;26968;42.686;23.352;2023-03-20T04:33:45;95370.97;;;3.73;65.28
41234;BME280;26968;42.686;23.352;2023-03-20T04:36:11;95516.94;;;4.74;65.65
41234;BME280;26968;42.686;23.352;2023-03-20T04:38:36;95493.28;;;4.62;65.73
41234;BME280;26968;42.686;23.352;2023-03-20T04:41:03;95513.84;;;4.88;65.40
41234;BME280;26968;42.686;23.352;2023-03-20T04:43:28;95518.41;;;4.93;65.49
41234;BME280;26968;42.686;23.352;2023-03-20T04:45:54;95516.03;;;5.03;65.34
41234;BME280;26968;42.686;23.352;2023-03-20T04:48:19;95531.41;;;5.11;65.50
41234;BME280;26968;42.686;23.352;2023-03-20T04:50:44;95521.47;;;5.13;64.58
41234;BME280;26968;42.686;23.352;2023-03-20T04:53:15;95422.13;;;4.52;64.65
41234;BME280;26968;42.686;23.352;2023-03-20T04:55:41;95514.38;;;5.14;64.16
41234;BME280;26968;42.686;23.352;2023-03-20T04:58:08;95491.00;;;5.00;63.70
41234;BME280;26968;42.686;23.352;2023-03-20T05:00:33;95534.38;;;5.38;63.23
41234;BME280;26968;42.686;23.352;2023-03-20T05:02:58;95478.50;;;5.08;62.77
41234;BME280;26968;42.686;23.352;2023-03-20T05:05:24;95322.19;;;4.18;63.04
41234;BME280;26968;42.686;23.352;2023-03-20T05:07:50;95439.91;;;4.96;62.66
41234;BME280;26968;42.686;23.352;2023-03-20T05:10:16;95543.81;;;5.62;62.54
41234;BME280;26968;42.686;23.352;2023-03-20T05:12:42;95461.72;;;5.09;62.63
41234;BME280;26968;42.686;23.352;2023-03-20T05:15:07;95447.78;;;5.08;62.20
41234;BME280;26968;42.686;23.352;2023-03-20T05:17:33;95504.63;;;5.49;62.77
41234;BME280;26968;42.686;23.352;2023-03-20T05:19:58;95500.25;;;5.43;62.52
41234;BME280;26968;42.686;23.352;2023-03-20T05:22:24;95549.59;;;5.76;62.66
41234;BME280;26968;42.686;23.352;2023-03-20T05:24:49;95475.38;;;5.34;62.51
41234;BME280;26968;42.686;23.352;2023-03-20T05:27:15;95526.06;;;5.58;62.25
41234;BME280;26968;42.686;23.352;2023-03-20T05:29:41;95452.22;;;5.08;62.41
41234;BME280;26968;42.686;23.352;2023-03-20T05:32:06;95409.28;;;5.02;61.57
41234;BME280;26968;42.686;23.352;2023-03-20T05:34:32;95551.59;;;5.97;61.32
41234;BME280;26968;42.686;23.352;2023-03-20T05:36:57;95554.50;;;5.72;62.68
41234;BME280;26968;42.686;23.352;2023-03-20T05:39:22;95557.22;;;5.89;61.53
41234;BME280;26968;42.686;23.352;2023-03-20T05:41:48;95490.59;;;5.60;61.54
41234;BME280;26968;42.686;23.352;2023-03-20T05:44:13;95559.91;;;6.06;61.14
41234;BME280;26968;42.686;23.352;2023-03-20T05:46:39;95553.72;;;6.12;61.15
41234;BME280;26968;42.686;23.352;2023-03-20T05:49:05;95441.22;;;5.51;61.20
41234;BME280;26968;42.686;23.352;2023-03-20T05:51:30;95521.38;;;6.00;61.26
41234;BME280;26968;42.686;23.352;2023-03-20T05:53:56;95486.78;;;5.79;61.42
41234;BME280;26968;42.686;23.352;2023-03-20T05:56:21;95488.56;;;5.91;60.87
41234;BME280;26968;42.686;23.352;2023-03-20T05:58:47;95424.84;;;5.60;61.06
41234;BME280;26968;42.686;23.352;2023-03-20T06:01:12;95566.06;;;6.56;60.84
41234;BME280;26968;42.686;23.352;2023-03-20T06:03:40;95459.03;;;5.89;60.78
41234;BME280;26968;42.686;23.352;2023-03-20T06:06:06;95490.84;;;6.15;61.03
41234;BME280;26968;42.686;23.352;2023-03-20T06:08:32;95561.94;;;6.61;60.38
41234;BME280;26968;42.686;23.352;2023-03-20T06:10:57;95448.94;;;5.97;59.84
41234;BME280;26968;42.686;23.352;2023-03-20T06:13:23;95395.75;;;5.67;59.82
41234;BME280;26968;42.686;23.352;2023-03-20T06:15:48;95412.03;;;5.80;59.71
41234;BME280;26968;42.686;23.352;2023-03-20T06:18:13;95503.31;;;6.53;60.06
41234;BME280;26968;42.686;23.352;2023-03-20T06:20:39;95574.72;;;6.85;59.88
41234;BME280;26968;42.686;23.352;2023-03-20T06:23:05;95459.81;;;6.17;59.79
41234;BME280;26968;42.686;23.352;2023-03-20T06:25:30;95491.09;;;6.31;59.93
41234;BME280;26968;42.686;23.352;2023-03-20T06:27:56;95375.09;;;5.75;59.58
41234;BME280;26968;42.686;23.352;2023-03-20T06:30:22;95490.22;;;6.42;59.20
41234;BME280;26968;42.686;23.352;2023-03-20T06:32:47;95536.38;;;6.78;58.84
41234;BME280;26968;42.686;23.352;2023-03-20T06:35:13;95452.78;;;6.40;58.64
41234;BME280;26968;42.686;23.352;2023-03-20T06:37:39;95570.38;;;7.13;58.88
41234;BME280;26968;42.686;23.352;2023-03-20T06:40:05;95536.66;;;6.98;58.64
41234;BME280;26968;42.686;23.352;2023-03-20T06:42:31;95499.88;;;6.70;58.62
41234;BME280;26968;42.686;23.352;2023-03-20T06:44:56;95544.97;;;7.07;58.50
41234;BME280;26968;42.686;23.352;2023-03-20T06:47:22;95377.16;;;6.02;58.76
41234;BME280;26968;42.686;23.352;2023-03-20T06:49:48;95568.28;;;7.31;58.89
41234;BME280;26968;42.686;23.352;2023-03-20T06:52:18;95497.63;;;6.78;58.65
41234;BME280;26968;42.686;23.352;2023-03-20T06:54:45;95534.81;;;7.15;58.81
41234;BME280;26968;42.686;23.352;2023-03-20T06:57:11;95477.31;;;6.95;58.33
41234;BME280;26968;42.686;23.352;2023-03-20T06:59:36;95381.41;;;6.41;58.11
41234;BME280;26968;42.686;23.352;2023-03-20T07:02:03;95551.09;;;7.51;58.23
41234;BME280;26968;42.686;23.352;2023-03-20T07:04:28;95516.25;;;7.49;58.25
41234;BME280;26968;42.686;23.352;2023-03-20T07:06:54;95474.88;;;7.32;57.98
41234;BME280;26968;42.686;23.352;2023-03-20T07:09:19;95503.41;;;7.57;57.69
41234;BME280;26968;42.686;23.352;2023-03-20T07:11:46;95460.97;;;7.37;57.65
41234;BME280;26968;42.686;23.352;2023-03-20T07:14:14;95477.09;;;7.62;57.62
41234;BME280;26968;42.686;23.352;2023-03-20T07:16:43;95374.28;;;7.02;57.04
41234;BME280;26968;42.686;23.352;2023-03-20T07:19:10;95544.84;;;8.00;56.89
41234;BME280;26968;42.686;23.352;2023-03-20T07:21:37;95540.50;;;8.16;56.89
41234;BME280;26968;42.686;23.352;2023-03-20T07:24:03;95509.78;;;8.10;56.07
41234;BME280;26968;42.686;23.352;2023-03-20T07:26:28;95372.59;;;7.40;55.90
41234;BME280;26968;42.686;23.352;2023-03-20T07:28:54;95447.81;;;7.91;56.14
41234;BME280;26968;42.686;23.352;2023-03-20T07:31:25;95541.72;;;8.62;55.77
41234;BME280;26968;42.686;23.352;2023-03-20T07:33:50;95469.34;;;8.31;55.29
41234;BME280;26968;42.686;23.352;2023-03-20T07:36:16;95422.78;;;7.98;55.12
41234;BME280;26968;42.686;23.352;2023-03-20T07:38:41;95410.41;;;8.04;54.91
41234;BME280;26968;42.686;23.352;2023-03-20T07:41:07;95476.50;;;8.36;55.85
41234;BME280;26968;42.686;23.352;2023-03-20T07:43:33;95546.88;;;8.74;55.67
41234;BME280;26968;42.686;23.352;2023-03-20T07:46:03;95542.38;;;8.74;55.59
41234;BME280;26968;42.686;23.352;2023-03-20T07:48:28;95483.19;;;8.43;55.14
41234;BME280;26968;42.686;23.352;2023-03-20T07:50:54;95472.44;;;8.28;55.07
41234;BME280;26968;42.686;23.352;2023-03-20T07:53:20;95375.47;;;7.65;54.94
41234;BME280;26968;42.686;23.352;2023-03-20T07:55:46;95511.75;;;8.46;55.99
41234;BME280;26968;42.686;23.352;2023-03-20T07:58:12;95488.38;;;8.33;55.89
41234;BME280;26968;42.686;23.352;2023-03-20T08:00:57;95481.53;;;8.37;55.07
41234;BME280;26968;42.686;23.352;2023-03-20T08:03:24;95447.84;;;8.23;54.94
41234;BME280;26968;42.686;23.352;2023-03-20T08:05:49;95464.31;;;8.67;54.64
41234;BME280;26968;42.686;23.352;2023-03-20T08:08:15;95472.25;;;8.67;54.10
41234;BME280;26968;42.686;23.352;2023-03-20T08:10:40;95542.78;;;9.30;54.16
41234;BME280;26968;42.686;23.352;2023-03-20T08:13:06;95402.03;;;8.39;54.03
41234;BME280;26968;42.686;23.352;2023-03-20T08:15:31;95533.25;;;9.34;54.12
41234;BME280;26968;42.686;23.352;2023-03-20T08:17:58;95489.13;;;8.98;53.60
41234;BME280;26968;42.686;23.352;2023-03-20T08:20:24;95468.94;;;8.86;53.98
41234;BME280;26968;42.686;23.352;2023-03-20T08:22:49;95412.97;;;8.58;54.00
41234;BME280;26968;42.686;23.352;2023-03-20T08:25:15;95496.91;;;9.19;53.36
41234;BME280;26968;42.686;23.352;2023-03-20T08:27:41;95481.34;;;9.28;53.14
41234;BME280;26968;42.686;23.352;2023-03-20T08:30:07;95537.06;;;9.53;53.27
41234;BME280;26968;42.686;23.352;2023-03-20T08:32:33;95483.38;;;9.11;53.10
41234;BME280;26968;42.686;23.352;2023-03-20T08:35:00;95417.31;;;8.79;53.07
41234;BME280;26968;42.686;23.352;2023-03-20T08:37:27;95468.84;;;9.18;52.97
41234;BME280;26968;42.686;23.352;2023-03-20T08:39:52;95400.78;;;8.99;52.90
41234;BME280;26968;42.686;23.352;2023-03-20T08:42:18;95503.41;;;9.49;53.23
41234;BME280;26968;42.686;23.352;2023-03-20T08:44:43;95435.75;;;9.11;53.58
41234;BME280;26968;42.686;23.352;2023-03-20T08:47:09;95541.41;;;9.85;53.14
41234;BME280;26968;42.686;23.352;2023-03-20T08:49:36;95536.34;;;9.78;52.59
41234;BME280;26968;42.686;23.352;2023-03-20T08:52:02;95451.63;;;9.11;52.87
41234;BME280;26968;42.686;23.352;2023-03-20T08:54:27;95459.66;;;9.31;52.58
41234;BME280;26968;42.686;23.352;2023-03-20T08:56:53;95435.75;;;9.16;52.06
41234;BME280;26968;42.686;23.352;2023-03-20T08:59:18;95334.78;;;8.67;51.92
41234;BME280;26968;42.686;23.352;2023-03-20T09:01:44;95471.66;;;9.54;52.08
41234;BME280;26968;42.686;23.352;2023-03-20T09:04:11;95462.69;;;9.60;52.00
41234;BME280;26968;42.686;23.352;2023-03-20T09:06:40;95531.97;;;10.09;51.60
41234;BME280;26968;42.686;23.352;2023-03-20T09:09:09;95521.97;;;10.26;51.67
41234;BME280;26968;42.686;23.352;2023-03-20T09:11:35;95477.66;;;10.12;51.10
41234;BME280;26968;42.686;23.352;2023-03-20T09:14:00;95441.56;;;9.75;51.04
41234;BME280;26968;42.686;23.352;2023-03-20T09:16:26;95481.63;;;10.14;50.83
41234;BME280;26968;42.686;23.352;2023-03-20T09:18:51;95432.56;;;9.96;50.44
41234;BME280;26968;42.686;23.352;2023-03-20T09:21:17;95505.81;;;10.53;51.19
41234;BME280;26968;42.686;23.352;2023-03-20T09:23:42;95448.22;;;10.08;50.12
41234;BME280;26968;42.686;23.352;2023-03-20T09:26:08;95397.56;;;9.84;50.61
41234;BME280;26968;42.686;23.352;2023-03-20T09:28:33;95459.69;;;10.44;50.01
41234;BME280;26968;42.686;23.352;2023-03-20T09:30:59;95407.19;;;10.26;49.30
41234;BME280;26968;42.686;23.352;2023-03-20T09:33:25;95491.22;;;10.86;49.23
41234;BME280;26968;42.686;23.352;2023-03-20T09:35:51;95495.97;;;10.99;49.44
41234;BME280;26968;42.686;23.352;2023-03-20T09:38:16;95423.59;;;10.63;49.24
41234;BME280;26968;42.686;23.352;2023-03-20T09:41:00;95479.78;;;11.11;49.11
41234;BME280;26968;42.686;23.352;2023-03-20T09:46:32;95439.94;;;11.11;51.86
41234;BME280;26968;42.686;23.352;2023-03-20T09:49:12;95381.38;;;10.87;51.07
41234;BME280;26968;42.686;23.352;2023-03-20T09:52:04;95357.72;;;10.96;48.67
41234;BME280;26968;42.686;23.352;2023-03-20T09:54:38;95444.84;;;11.58;48.00
41234;BME280;26968;42.686;23.352;2023-03-20T09:57:05;95370.84;;;11.31;47.56
41234;BME280;26968;42.686;23.352;2023-03-20T09:59:35;95373.41;;;11.51;47.63
41234;BME280;26968;42.686;23.352;2023-03-20T10:02:11;95341.28;;;11.48;49.16
41234;BME280;26968;42.686;23.352;2023-03-20T10:04:38;95381.41;;;11.95;47.38
41234;BME280;26968;42.686;23.352;2023-03-20T10:07:04;95352.38;;;12.04;47.09
41234;BME280;26968;42.686;23.352;2023-03-20T10:09:30;95377.25;;;12.47;47.86
41234;BME280;26968;42.686;23.352;2023-03-20T10:12:31;95408.44;;;13.23;46.40
41234;BME280;26968;42.686;23.352;2023-03-20T10:20:34;95407.09;;;16.66;40.42
41234;BME280;26968;42.686;23.352;2023-03-20T10:25:55;95329.97;;;18.16;36.08
41234;BME280;26968;42.686;23.352;2023-03-20T10:28:33;95379.38;;;19.13;33.86
41234;BME280;26968;42.686;23.352;2023-03-20T10:34:21;95324.66;;;20.30;30.70
41234;BME280;26968;42.686;23.352;2023-03-20T10:37:13;95324.66;;;20.30;30.70
41234;BME280;26968;42.686;23.352;2023-03-20T10:42:24;95307.00;;;21.10;28.70
41234;BME280;26968;42.686;23.352;2023-03-20T10:44:58;95377.81;;;21.92;28.19
41234;BME280;26968;42.686;23.352;2023-03-20T10:47:29;95267.94;;;21.69;27.71
41234;BME280;26968;42.686;23.352;2023-03-20T10:50:13;95311.31;;;22.00;27.84
41234;BME280;26968;42.686;23.352;2023-03-20T10:52:41;95183.25;;;21.45;27.22
41234;BME280;26968;42.686;23.352;2023-03-20T10:55:11;95353.06;;;22.58;27.22
41234;BME280;26968;42.686;23.352;2023-03-20T10:57:43;95285.00;;;22.25;26.26
41234;BME280;26968;42.686;23.352;2023-03-20T11:00:20;95349.78;;;22.93;26.70
41234;BME280;26968;42.686;23.352;2023-03-20T11:02:46;95247.28;;;22.28;27.04
41234;BME280;26968;42.686;23.352;2023-03-20T11:05:27;95343.56;;;22.92;27.04
41234;BME280;26968;42.686;23.352;2023-03-20T11:08:06;95219.59;;;22.47;27.18
41234;BME280;26968;42.686;23.352;2023-03-20T11:10:34;95219.59;;;22.47;27.18
41234;BME280;26968;42.686;23.352;2023-03-20T11:13:22;95335.00;;;23.69;25.65
41234;BME280;26968;42.686;23.352;2023-03-20T11:15:51;95325.75;;;23.70;25.22
41234;BME280;26968;42.686;23.352;2023-03-20T11:18:23;95191.09;;;22.81;25.54
41234;BME280;26968;42.686;23.352;2023-03-20T11:20:52;95223.34;;;23.05;24.62
41234;BME280;26968;42.686;23.352;2023-03-20T11:23:29;95313.19;;;23.62;23.89
41234;BME280;26968;42.686;23.352;2023-03-20T11:26:02;95313.59;;;23.99;23.54
41234;BME280;26968;42.686;23.352;2023-03-20T11:28:35;95289.81;;;23.73;23.20
41234;BME280;26968;42.686;23.352;2023-03-20T11:31:17;95306.53;;;24.13;23.82
41234;BME280;26968;42.686;23.352;2023-03-20T11:36:35;95287.78;;;24.05;22.46
41234;BME280;26968;42.686;23.352;2023-03-20T11:39:13;95204.13;;;23.45;22.51
41234;BME280;26968;42.686;23.352;2023-03-20T11:41:58;95283.81;;;23.99;22.72
41234;BME280;26968;42.686;23.352;2023-03-20T11:44:29;95126.06;;;23.09;22.38
41234;BME280;26968;42.686;23.352;2023-03-20T11:46:59;95268.03;;;24.04;22.86
41234;BME280;26968;42.686;23.352;2023-03-20T11:49:27;95222.84;;;23.89;23.46
41234;BME280;26968;42.686;23.352;2023-03-20T11:51:55;95232.69;;;24.16;23.00
41234;BME280;26968;42.686;23.352;2023-03-20T11:54:24;95186.53;;;24.13;21.94
41234;BME280;26968;42.686;23.352;2023-03-20T11:56:56;95201.03;;;24.20;23.45
41234;BME280;26968;42.686;23.352;2023-03-20T11:59:24;62207.84;;;-143.51;100.00
41234;BME280;26968;42.686;23.352;2023-03-20T12:01:52;95201.03;;;24.20;23.45
41234;BME280;26968;42.686;23.352;2023-03-20T12:04:26;95242.47;;;25.35;21.53
41234;BME280;26968;42.686;23.352;2023-03-20T12:07:27;95199.94;;;25.16;21.96
41234;BME280;26968;42.686;23.352;2023-03-20T12:09:56;95190.97;;;25.12;22.05
41234;BME280;26968;42.686;23.352;2023-03-20T12:15:03;95228.13;;;25.61;20.97
41234;BME280;26968;42.686;23.352;2023-03-20T12:28:18;95162.47;;;24.99;19.30
41234;BME280;26968;42.686;23.352;2023-03-20T12:31:16;95198.81;;;25.17;18.86
41234;BME280;26968;42.686;23.352;2023-03-20T12:36:49;95188.94;;;24.83;19.15
41234;BME280;26968;42.686;23.352;2023-03-20T12:39:19;95117.13;;;24.50;18.58
41234;BME280;26968;42.686;23.352;2023-03-20T12:44:47;95196.31;;;25.35;18.04
41234;BME280;26968;42.686;23.352;2023-03-20T12:59:04;95169.31;;;25.16;18.50
41234;BME280;26968;42.686;23.352;2023-03-20T13:04:55;95100.06;;;23.81;18.87
41234;BME280;26968;42.686;23.352;2023-03-20T13:16:33;95154.47;;;24.15;18.59
41234;BME280;26968;42.686;23.352;2023-03-20T13:21:48;95146.41;;;24.41;18.58
41234;BME280;26968;42.686;23.352;2023-03-20T13:24:44;95054.25;;;24.41;18.73
41234;BME280;26968;42.686;23.352;2023-03-20T13:33:15;95090.88;;;24.54;18.09
41234;BME280;26968;42.686;23.352;2023-03-20T13:38:53;95122.31;;;25.08;17.50
41234;BME280;26968;42.686;23.352;2023-03-20T13:41:23;95037.91;;;24.87;17.43
41234;BME280;26968;42.686;23.352;2023-03-20T13:44:00;95042.84;;;24.81;17.60
41234;BME280;26968;42.686;23.352;2023-03-20T13:46:34;95112.16;;;25.31;17.89
41234;BME280;26968;42.686;23.352;2023-03-20T13:49:13;95096.41;;;25.14;19.39
41234;BME280;26968;42.686;23.352;2023-03-20T14:05:25;95081.50;;;24.03;18.83
41234;BME280;26968;42.686;23.352;2023-03-20T14:07:56;95103.03;;;23.54;18.64
41234;BME280;26968;42.686;23.352;2023-03-20T14:13:13;95099.28;;;24.04;18.75
41234;BME280;26968;42.686;23.352;2023-03-20T14:15:51;95088.78;;;23.57;18.65
41234;BME280;26968;42.686;23.352;2023-03-20T14:18:17;95028.25;;;23.26;18.31
41234;BME280;26968;42.686;23.352;2023-03-20T14:20:53;95022.91;;;23.30;18.47
41234;BME280;26968;42.686;23.352;2023-03-20T14:24:01;95082.59;;;23.56;18.04
41234;BME280;26968;42.686;23.352;2023-03-20T14:26:21;95028.66;;;23.47;17.51
41234;BME280;26968;42.686;23.352;2023-03-20T14:31:34;95056.69;;;24.01;17.48
41234;BME280;26968;42.686;23.352;2023-03-20T14:39:19;95060.97;;;23.79;18.06
41234;BME280;26968;42.686;23.352;2023-03-20T14:58:26;95064.78;;;24.73;17.04
41234;BME280;26968;42.686;23.352;2023-03-20T15:00:50;95000.38;;;24.36;17.04
41234;BME280;26968;42.686;23.352;2023-03-20T15:03:16;95057.84;;;24.49;17.66
41234;BME280;26968;42.686;23.352;2023-03-20T15:05:42;95050.41;;;24.42;17.76
41234;BME280;26968;42.686;23.352;2023-03-20T15:08:19;94948.50;;;23.62;18.06
41234;BME280;26968;42.686;23.352;2023-03-20T15:10:58;94978.28;;;23.43;17.63
41234;BME280;26968;42.686;23.352;2023-03-20T15:13:26;95048.81;;;23.50;18.48
41234;BME280;26968;42.686;23.352;2023-03-20T15:15:56;95052.59;;;23.07;18.87
41234;BME280;26968;42.686;23.352;2023-03-20T15:18:25;94981.00;;;22.47;19.17
41234;BME280;26968;42.686;23.352;2023-03-20T15:20:51;95060.31;;;22.89;19.27
41234;BME280;26968;42.686;23.352;2023-03-20T15:23:17;95034.50;;;22.57;21.24
41234;BME280;26968;42.686;23.352;2023-03-20T15:25:44;95025.22;;;22.39;21.30
41234;BME280;26968;42.686;23.352;2023-03-20T15:28:14;94956.97;;;21.75;21.02
41234;BME280;26968;42.686;23.352;2023-03-20T15:30:40;95044.44;;;22.18;21.21
41234;BME280;26968;42.686;23.352;2023-03-20T15:35:49;94967.34;;;21.42;22.58
41234;BME280;26968;42.686;23.352;2023-03-20T15:38:15;94919.75;;;20.90;22.66
41234;BME280;26968;42.686;23.352;2023-03-20T15:40:42;94937.25;;;20.84;21.56
41234;BME280;26968;42.686;23.352;2023-03-20T15:43:22;94921.31;;;20.63;21.55
41234;BME280;26968;42.686;23.352;2023-03-20T15:45:50;95029.69;;;21.25;21.65
41234;BME280;26968;42.686;23.352;2023-03-20T15:48:22;95045.88;;;21.25;21.51
41234;BME280;26968;42.686;23.352;2023-03-20T15:50:52;94943.69;;;20.52;21.66